Time;durP1;ratioP1;P1;durP2;ratioP2;P2;SDS_P1;SDS_P2;PMS_P1;PMS_P2;Temp;Humidity;BMP_temperature;BMP_pressure;BME280_temperature;BME280_humidity;BME280_pressure;Samples;Min_cycle;Max_cycle;Signal;HPM_P1;HPM_P2
2022/11/07 00:01:58;;;;;;;10.10;4.67;;;9.30;99.90;;;;;;461387;257;28601;-71
2022/11/07 00:03:59;;;;;;;9.53;4.70;;;9.30;99.90;;;;;;461417;257;28525;-70
2022/11/07 00:06:00;;;;;;;4.43;3.70;;;9.30;99.90;;;;;;461369;257;28558;-70
2022/11/07 00:08:02;;;;;;;6.80;3.87;;;9.30;99.90;;;;;;461402;257;28558;-70
2022/11/07 00:10:03;;;;;;;10.43;5.03;;;9.30;99.90;;;;;;461406;257;28244;-70
2022/11/07 00:12:04;;;;;;;7.40;3.53;;;9.30;99.90;;;;;;461405;257;28385;-72
2022/11/07 00:14:05;;;;;;;5.70;4.33;;;9.30;99.90;;;;;;461399;257;27902;-70
2022/11/07 00:16:07;;;;;;;6.97;3.60;;;9.30;99.90;;;;;;461383;257;27798;-71
2022/11/07 00:18:08;;;;;;;5.27;3.67;;;9.30;99.90;;;;;;461389;257;28099;-69
2022/11/07 00:20:09;;;;;;;6.73;3.43;;;9.30;99.90;;;;;;461422;257;28153;-70
2022/11/07 00:22:10;;;;;;;7.03;3.63;;;9.40;99.90;;;;;;461435;257;28075;-71
2022/11/07 00:24:12;;;;;;;4.27;3.40;;;9.40;99.90;;;;;;461416;257;28120;-70
2022/11/07 00:26:13;;;;;;;4.27;2.80;;;9.40;99.90;;;;;;461414;257;27748;-70
2022/11/07 00:28:14;;;;;;;5.20;3.60;;;9.40;99.90;;;;;;461408;257;27936;-70
2022/11/07 00:30:15;;;;;;;5.80;3.13;;;9.40;99.90;;;;;;461409;257;28158;-70
2022/11/07 00:32:17;;;;;;;5.60;3.20;;;9.40;99.90;;;;;;461422;257;27985;-71
2022/11/07 00:34:18;;;;;;;4.50;3.23;;;9.40;99.90;;;;;;461409;257;28069;-70
2022/11/07 00:36:19;;;;;;;3.10;2.80;;;9.40;99.90;;;;;;461445;257;28169;-71
2022/11/07 00:38:20;;;;;;;5.40;3.20;;;9.40;99.90;;;;;;461495;257;28027;-70
2022/11/07 00:40:22;;;;;;;6.00;2.93;;;9.40;99.90;;;;;;461534;257;27735;-70
2022/11/07 00:42:23;;;;;;;5.40;3.20;;;9.40;99.90;;;;;;461511;257;28994;-71
2022/11/07 00:44:24;;;;;;;8.67;3.70;;;9.50;99.90;;;;;;461425;257;28496;-70
2022/11/07 00:46:25;;;;;;;5.73;2.83;;;9.50;99.90;;;;;;461410;257;28171;-70
2022/11/07 00:48:27;;;;;;;2.77;2.57;;;9.50;99.90;;;;;;461428;257;27994;-70
2022/11/07 00:50:28;;;;;;;2.63;2.43;;;9.50;99.90;;;;;;461357;257;28783;-70
2022/11/07 00:52:29;;;;;;;4.03;2.67;;;9.50;99.90;;;;;;461436;257;28611;-70
2022/11/07 00:54:30;;;;;;;7.03;3.13;;;9.50;99.90;;;;;;461418;257;28132;-70
2022/11/07 00:56:32;;;;;;;3.33;2.87;;;9.50;99.90;;;;;;461417;257;28265;-71
2022/11/07 00:58:33;;;;;;;4.27;3.00;;;9.50;99.90;;;;;;461401;257;28109;-70
2022/11/07 01:00:34;;;;;;;3.33;2.80;;;9.50;99.90;;;;;;461419;257;28073;-70
2022/11/07 01:02:35;;;;;;;3.83;2.70;;;9.50;99.90;;;;;;461413;257;27977;-70
2022/11/07 01:06:56;;;;;;;4.60;2.90;;;9.60;99.90;;;;;;461429;257;28544;-70
2022/11/07 01:08:57;;;;;;;5.67;3.00;;;9.60;99.90;;;;;;461433;257;28497;-70
2022/11/07 01:10:58;;;;;;;5.50;3.07;;;9.60;99.90;;;;;;461424;257;28201;-70
2022/11/07 01:13:00;;;;;;;7.00;2.63;;;9.60;99.90;;;;;;461409;257;27699;-70
2022/11/07 01:15:01;;;;;;;4.43;3.10;;;9.60;99.90;;;;;;461382;257;28047;-70
2022/11/07 01:17:02;;;;;;;5.40;2.97;;;9.60;99.90;;;;;;461409;252;28215;-70
2022/11/07 01:19:03;;;;;;;7.57;3.10;;;9.60;99.90;;;;;;461415;257;28000;-70
2022/11/07 01:21:05;;;;;;;3.87;2.80;;;9.60;99.90;;;;;;461423;257;27584;-71
2022/11/07 01:23:06;;;;;;;4.13;2.90;;;9.70;99.90;;;;;;461417;257;27676;-70
2022/11/07 01:25:07;;;;;;;3.27;2.90;;;9.60;99.90;;;;;;461423;257;28045;-70
2022/11/07 01:27:08;;;;;;;9.40;2.80;;;9.70;99.90;;;;;;461421;257;27989;-70
2022/11/07 01:29:10;;;;;;;5.50;3.10;;;9.70;99.90;;;;;;461412;257;27965;-70
2022/11/07 01:31:11;;;;;;;4.43;3.33;;;9.70;99.90;;;;;;461426;257;28146;-70
2022/11/07 01:33:12;;;;;;;4.10;3.20;;;9.70;99.90;;;;;;461427;257;28582;-71
2022/11/07 01:35:14;;;;;;;4.23;2.40;;;9.70;99.90;;;;;;461401;257;28686;-70
2022/11/07 01:37:15;;;;;;;7.87;2.93;;;9.70;99.90;;;;;;461416;257;28528;-70
2022/11/07 01:39:16;;;;;;;8.23;3.17;;;9.70;99.90;;;;;;461410;257;28410;-70
2022/11/07 01:41:20;;;;;;;4.50;2.97;;;9.70;99.90;;;;;;461431;257;28041;-70
2022/11/07 01:43:21;;;;;;;5.73;3.00;;;9.70;99.90;;;;;;461418;257;28055;-70
2022/11/07 01:45:22;;;;;;;3.20;2.80;;;9.80;99.90;;;;;;461443;257;27709;-71
2022/11/07 01:47:24;;;;;;;4.20;3.20;;;9.80;99.90;;;;;;461435;257;28062;-70
2022/11/07 01:49:25;;;;;;;4.77;3.10;;;9.80;99.90;;;;;;461399;257;27929;-71
2022/11/07 01:51:26;;;;;;;3.37;2.90;;;9.80;99.90;;;;;;461428;257;28139;-70
2022/11/07 01:53:27;;;;;;;6.30;3.10;;;9.70;99.90;;;;;;461419;257;28201;-70
2022/11/07 01:55:29;;;;;;;5.10;2.90;;;9.70;99.90;;;;;;461422;257;28997;-71
2022/11/07 01:57:30;;;;;;;4.17;2.63;;;9.70;99.90;;;;;;461417;257;28491;-70
2022/11/07 01:59:31;;;;;;;4.00;2.90;;;9.70;99.90;;;;;;461395;258;28451;-71
2022/11/07 02:01:32;;;;;;;4.20;2.70;;;9.70;99.90;;;;;;461420;257;28369;-70
2022/11/07 02:03:34;;;;;;;4.60;2.60;;;9.70;99.90;;;;;;461416;257;29037;-71
2022/11/07 02:05:35;;;;;;;3.07;2.80;;;9.70;99.90;;;;;;461436;257;28433;-70
2022/11/07 02:07:36;;;;;;;4.23;3.00;;;9.70;99.90;;;;;;461423;257;27996;-70
2022/11/07 02:09:37;;;;;;;4.60;3.20;;;9.80;99.90;;;;;;461426;257;27924;-70
2022/11/07 02:11:39;;;;;;;3.30;2.77;;;9.80;99.90;;;;;;461096;257;28184;-70
2022/11/07 02:13:40;;;;;;;2.80;2.50;;;9.80;99.90;;;;;;461174;257;28096;-70
2022/11/07 02:15:41;;;;;;;6.00;3.10;;;9.80;99.90;;;;;;461409;257;27999;-69
2022/11/07 02:17:42;;;;;;;4.77;2.50;;;9.80;99.90;;;;;;461409;257;28047;-70
2022/11/07 02:19:44;;;;;;;7.17;3.00;;;9.80;99.90;;;;;;461405;257;27704;-70
2022/11/07 02:21:45;;;;;;;4.63;2.77;;;9.80;99.90;;;;;;461423;257;28099;-69
2022/11/07 02:23:46;;;;;;;5.37;2.83;;;9.80;99.90;;;;;;461439;257;27495;-70
2022/11/07 02:25:47;;;;;;;6.03;2.53;;;9.80;99.90;;;;;;461418;257;27992;-70
2022/11/07 02:27:49;;;;;;;3.63;2.50;;;9.80;99.90;;;;;;461416;257;28166;-70
2022/11/07 02:29:50;;;;;;;3.90;3.00;;;9.80;99.90;;;;;;461442;257;28074;-70
2022/11/07 02:31:51;;;;;;;3.53;2.60;;;9.80;99.90;;;;;;461405;257;28151;-70
2022/11/07 02:33:52;;;;;;;2.70;2.43;;;9.80;99.90;;;;;;461425;257;27686;-70
2022/11/07 02:35:54;;;;;;;4.10;2.30;;;9.70;99.90;;;;;;461399;257;28837;-71
2022/11/07 02:37:55;;;;;;;2.60;2.40;;;9.80;99.90;;;;;;461418;257;28603;-70
2022/11/07 02:39:56;;;;;;;3.10;2.30;;;9.80;99.90;;;;;;461419;257;28156;-70
2022/11/07 02:41:57;;;;;;;3.27;2.07;;;9.80;99.90;;;;;;461404;257;28523;-70
2022/11/07 02:43:59;;;;;;;2.20;2.00;;;9.80;99.90;;;;;;461411;257;28519;-70
2022/11/07 02:46:00;;;;;;;4.63;2.47;;;9.80;99.90;;;;;;461433;257;28095;-72
2022/11/07 02:48:01;;;;;;;3.97;2.40;;;9.80;99.90;;;;;;461420;257;28146;-70
2022/11/07 02:50:02;;;;;;;2.40;2.20;;;9.80;99.90;;;;;;461408;257;28243;-71
2022/11/07 02:52:04;;;;;;;3.90;2.07;;;9.80;99.90;;;;;;461413;257;28118;-70
2022/11/07 02:54:05;;;;;;;2.70;2.10;;;9.80;99.90;;;;;;461405;257;28070;-70
2022/11/07 02:56:06;;;;;;;3.33;2.30;;;9.80;99.90;;;;;;461384;257;28092;-70
2022/11/07 02:58:07;;;;;;;5.30;2.60;;;9.80;99.90;;;;;;461346;257;28215;-70
2022/11/07 03:00:09;;;;;;;5.83;2.33;;;9.80;99.90;;;;;;461340;257;28446;-70
2022/11/07 03:02:10;;;;;;;5.13;2.70;;;9.80;99.90;;;;;;461349;257;28196;-70
2022/11/07 03:04:11;;;;;;;6.90;2.57;;;9.80;99.90;;;;;;461372;257;28072;-70
2022/11/07 03:06:12;;;;;;;5.77;2.67;;;9.80;99.90;;;;;;461255;257;27600;-71
2022/11/07 03:08:14;;;;;;;8.47;2.80;;;9.80;99.90;;;;;;461375;257;28165;-70
2022/11/07 03:10:15;;;;;;;4.67;2.50;;;9.80;99.90;;;;;;461258;257;27952;-70
2022/11/07 03:12:16;;;;;;;11.43;2.83;;;9.80;99.90;;;;;;461342;257;28024;-70
2022/11/07 03:14:17;;;;;;;5.83;3.00;;;9.80;99.90;;;;;;461408;257;28390;-70
2022/11/07 03:16:19;;;;;;;3.50;2.50;;;9.80;99.90;;;;;;461411;257;28696;-70
2022/11/07 03:18:20;;;;;;;5.27;2.40;;;9.80;99.90;;;;;;461419;257;28453;-70
2022/11/07 03:20:21;;;;;;;9.63;2.80;;;9.80;99.90;;;;;;461408;257;28615;-71
2022/11/07 03:22:22;;;;;;;4.40;2.43;;;9.90;99.90;;;;;;461422;257;28446;-70
2022/11/07 03:24:24;;;;;;;5.07;2.60;;;9.90;99.90;;;;;;461422;257;28204;-70
2022/11/07 03:26:25;;;;;;;2.90;2.30;;;9.90;99.90;;;;;;461408;257;28016;-71
2022/11/07 03:28:26;;;;;;;2.83;2.63;;;9.90;99.90;;;;;;461415;257;28016;-70
2022/11/07 03:30:27;;;;;;;4.00;2.53;;;9.90;99.90;;;;;;461421;257;27824;-71
2022/11/07 03:32:29;;;;;;;5.30;2.60;;;9.90;99.90;;;;;;461447;257;27976;-70
2022/11/07 03:34:30;;;;;;;6.77;3.00;;;9.90;99.90;;;;;;461418;257;28074;-70
2022/11/07 03:36:32;;;;;;;7.97;2.47;;;9.80;99.90;;;;;;461396;257;28083;-71
2022/11/07 03:38:32;;;;;;;5.23;2.80;;;9.80;99.90;;;;;;461360;257;28372;-70
2022/11/07 03:40:34;;;;;;;4.40;2.20;;;9.80;99.90;;;;;;461395;257;28408;-70
2022/11/07 03:42:35;;;;;;;5.07;3.20;;;9.80;99.90;;;;;;461183;257;29347;-70
2022/11/07 03:44:36;;;;;;;4.80;2.73;;;9.80;99.90;;;;;;461404;257;28555;-69
2022/11/07 03:46:37;;;;;;;3.37;2.60;;;9.80;99.90;;;;;;461411;257;28544;-70
2022/11/07 03:48:39;;;;;;;4.63;2.80;;;9.80;99.90;;;;;;461419;257;27903;-70
2022/11/07 03:50:40;;;;;;;5.80;2.43;;;9.80;99.90;;;;;;461414;257;27560;-70
2022/11/07 03:52:41;;;;;;;3.30;2.40;;;9.80;99.90;;;;;;461399;257;28060;-70
2022/11/07 03:54:42;;;;;;;4.33;2.30;;;9.80;99.90;;;;;;461404;257;28196;-70
2022/11/07 03:56:44;;;;;;;3.40;2.20;;;9.80;99.90;;;;;;461409;257;28168;-71
2022/11/07 03:58:45;;;;;;;11.37;3.10;;;9.80;99.90;;;;;;461415;257;28109;-70
2022/11/07 04:00:46;;;;;;;5.87;2.60;;;9.80;99.90;;;;;;461245;257;27958;-70
2022/11/07 04:02:47;;;;;;;4.80;2.60;;;9.80;99.90;;;;;;461155;257;27921;-70
2022/11/07 04:04:49;;;;;;;3.60;2.40;;;9.80;99.90;;;;;;460830;257;27932;-70
2022/11/07 04:06:50;;;;;;;2.33;2.10;;;9.80;99.90;;;;;;461369;257;28204;-70
2022/11/07 04:08:51;;;;;;;2.00;1.80;;;9.80;99.90;;;;;;461422;257;27658;-70
2022/11/07 04:10:52;;;;;;;3.90;2.70;;;9.80;99.90;;;;;;461422;257;27921;-70
2022/11/07 04:17:33;;;;;;;2.47;1.90;;;9.80;99.90;;;;;;447213;266;28198;-70
2022/11/07 04:19:34;;;;;;;3.40;2.10;;;9.80;99.90;;;;;;463854;256;28054;-71
2022/11/07 04:21:35;;;;;;;3.53;2.30;;;9.80;99.90;;;;;;463805;256;28137;-70
2022/11/07 04:23:36;;;;;;;8.20;2.73;;;9.80;99.90;;;;;;463823;256;27883;-71
2022/11/07 04:27:57;;;;;;;4.10;2.40;;;9.80;99.90;;;;;;463702;256;28113;-70
2022/11/07 04:29:58;;;;;;;4.97;2.80;;;9.80;99.90;;;;;;463595;256;28066;-71
2022/11/07 04:31:59;;;;;;;4.13;2.30;;;9.80;99.90;;;;;;463833;256;28248;-70
2022/11/07 04:34:00;;;;;;;4.67;2.40;;;9.80;99.90;;;;;;463819;256;28057;-70
2022/11/07 04:36:02;;;;;;;3.40;2.27;;;9.80;99.90;;;;;;463813;256;28091;-70
2022/11/07 04:38:03;;;;;;;4.73;2.20;;;9.80;99.90;;;;;;463609;256;28028;-70
2022/11/07 04:40:04;;;;;;;8.80;2.40;;;9.70;99.90;;;;;;463804;256;28672;-71
2022/11/07 04:42:05;;;;;;;2.67;2.47;;;9.70;99.90;;;;;;463824;256;28631;-70
2022/11/07 04:44:07;;;;;;;5.10;2.33;;;9.70;99.90;;;;;;463803;256;28248;-70
2022/11/07 04:46:08;;;;;;;2.70;2.30;;;9.80;99.90;;;;;;463781;256;28612;-70
2022/11/07 04:48:11;;;;;;;6.20;2.60;;;9.80;99.90;;;;;;463817;256;28583;-70
2022/11/07 04:50:10;;;;;;;5.53;2.80;;;9.80;99.90;;;;;;477111;248;28591;-71
2022/11/07 04:52:12;;;;;;;8.10;2.40;;;9.80;99.90;;;;;;479039;247;27652;-70
2022/11/07 04:54:13;;;;;;;2.03;1.83;;;9.80;99.90;;;;;;479027;248;27748;-71
2022/11/07 04:56:14;;;;;;;5.27;2.47;;;9.80;99.90;;;;;;479036;247;27938;-70
2022/11/07 04:58:15;;;;;;;3.03;2.20;;;9.80;99.90;;;;;;479014;248;27788;-70
2022/11/07 05:00:17;;;;;;;3.07;2.10;;;9.80;99.90;;;;;;479034;247;27910;-71
2022/11/07 05:02:18;;;;;;;3.00;1.93;;;9.80;99.90;;;;;;479044;247;27864;-70
2022/11/07 05:04:19;;;;;;;3.13;2.73;;;9.80;99.90;;;;;;461405;257;28069;-70
2022/11/07 05:06:20;;;;;;;2.53;2.27;;;9.80;99.90;;;;;;461412;257;28184;-70
2022/11/07 05:08:22;;;;;;;3.73;2.20;;;9.80;99.90;;;;;;461358;257;28204;-71
2022/11/07 05:10:23;;;;;;;6.00;2.97;;;9.80;99.90;;;;;;461416;257;28042;-72
2022/11/07 05:12:24;;;;;;;1.90;1.80;;;9.80;99.90;;;;;;461367;257;28040;-70
2022/11/07 05:14:25;;;;;;;7.43;2.70;;;9.80;99.90;;;;;;461435;257;28040;-70
2022/11/07 05:16:27;;;;;;;8.27;2.40;;;9.80;99.90;;;;;;461426;257;28125;-70
2022/11/07 05:18:28;;;;;;;5.00;2.10;;;9.80;99.90;;;;;;461412;257;28166;-70
2022/11/07 05:20:29;;;;;;;5.10;2.10;;;9.80;99.90;;;;;;461404;257;27872;-72
2022/11/07 05:24:50;;;;;;;2.27;2.07;;;9.80;99.90;;;;;;461408;257;28192;-70
2022/11/07 05:26:51;;;;;;;6.03;2.40;;;9.80;99.90;;;;;;461417;257;27892;-70
2022/11/07 05:28:52;;;;;;;4.03;2.20;;;9.80;99.90;;;;;;461415;257;28004;-70
2022/11/07 05:30:54;;;;;;;6.07;1.87;;;9.80;99.90;;;;;;461402;257;28208;-71
2022/11/07 05:32:55;;;;;;;6.43;1.97;;;9.80;99.90;;;;;;461414;257;28051;-70
2022/11/07 05:34:56;;;;;;;8.13;2.07;;;9.80;99.90;;;;;;461419;257;28063;-71
2022/11/07 05:36:57;;;;;;;6.40;2.10;;;9.90;99.90;;;;;;461411;257;28283;-70
2022/11/07 05:38:59;;;;;;;2.10;1.90;;;9.90;99.90;;;;;;461409;257;28450;-70
2022/11/07 05:41:00;;;;;;;4.17;2.40;;;9.90;99.90;;;;;;461415;257;28475;-71
2022/11/07 05:43:01;;;;;;;2.27;2.00;;;9.90;99.90;;;;;;461420;257;28445;-70
2022/11/07 05:45:02;;;;;;;4.70;2.20;;;9.90;99.90;;;;;;461442;257;28624;-70
2022/11/07 05:47:04;;;;;;;4.33;2.10;;;9.90;99.90;;;;;;461413;257;28491;-70
2022/11/07 05:49:05;;;;;;;2.60;2.10;;;9.90;99.90;;;;;;461420;257;28477;-70
2022/11/07 05:51:06;;;;;;;4.83;2.40;;;10.00;99.90;;;;;;461394;257;28144;-71
2022/11/07 05:53:07;;;;;;;4.40;2.60;;;10.00;99.90;;;;;;461429;257;28025;-70
2022/11/07 05:55:09;;;;;;;5.20;2.30;;;10.00;99.90;;;;;;461456;257;28067;-70
2022/11/07 05:57:10;;;;;;;2.80;1.80;;;10.00;99.90;;;;;;461428;257;27945;-70
2022/11/07 05:59:11;;;;;;;4.33;2.37;;;9.90;99.90;;;;;;461447;257;27784;-70
2022/11/07 06:01:13;;;;;;;3.73;2.00;;;10.00;99.90;;;;;;461442;257;28004;-71
2022/11/07 06:03:14;;;;;;;4.00;2.40;;;9.90;99.90;;;;;;461420;257;28145;-70
2022/11/07 06:05:15;;;;;;;4.93;2.30;;;10.00;99.90;;;;;;461412;257;27943;-70
2022/11/07 06:07:16;;;;;;;6.20;2.30;;;10.00;99.90;;;;;;461424;257;28172;-71
2022/11/07 06:09:17;;;;;;;5.80;2.40;;;10.00;99.90;;;;;;461437;251;27997;-70
2022/11/07 06:11:19;;;;;;;5.53;2.33;;;10.00;99.90;;;;;;461422;257;28075;-71
2022/11/07 06:13:20;;;;;;;4.93;1.80;;;10.00;99.90;;;;;;461433;257;28446;-70
2022/11/07 06:15:21;;;;;;;4.43;2.10;;;10.00;99.90;;;;;;461423;257;28084;-70
2022/11/07 06:17:22;;;;;;;6.20;2.20;;;10.00;99.90;;;;;;461415;257;28616;-72
2022/11/07 06:19:24;;;;;;;3.00;1.80;;;10.00;99.90;;;;;;461436;257;28484;-70
2022/11/07 06:21:25;;;;;;;7.00;2.00;;;9.90;99.90;;;;;;461426;257;28540;-70
2022/11/07 06:23:26;;;;;;;2.40;2.17;;;9.90;99.90;;;;;;461352;257;28243;-70
2022/11/07 06:25:27;;;;;;;6.57;2.60;;;9.90;99.90;;;;;;461424;257;28418;-70
2022/11/07 06:27:29;;;;;;;3.00;2.10;;;9.90;99.90;;;;;;461424;257;28196;-70
2022/11/07 06:29:30;;;;;;;4.17;2.33;;;9.90;99.90;;;;;;461423;257;28047;-70
2022/11/07 06:31:31;;;;;;;5.30;2.10;;;9.90;99.90;;;;;;461416;257;28177;-70
2022/11/07 06:33:32;;;;;;;3.63;2.07;;;10.00;99.90;;;;;;461422;257;27657;-70
2022/11/07 06:35:34;;;;;;;8.30;2.00;;;10.00;99.90;;;;;;461415;257;27915;-70
2022/11/07 06:37:35;;;;;;;3.67;2.00;;;10.00;99.90;;;;;;461396;257;27991;-71
2022/11/07 06:39:36;;;;;;;4.07;1.87;;;10.00;99.90;;;;;;461418;257;27796;-70
2022/11/07 06:41:37;;;;;;;6.40;2.47;;;10.00;99.90;;;;;;461406;257;28078;-70
2022/11/07 06:43:39;;;;;;;4.07;1.93;;;10.00;99.90;;;;;;461429;257;27908;-70
2022/11/07 06:45:40;;;;;;;5.33;2.40;;;10.00;99.90;;;;;;461393;257;28184;-70
2022/11/07 06:47:41;;;;;;;3.40;2.27;;;10.00;99.90;;;;;;461367;257;28597;-71
2022/11/07 06:49:43;;;;;;;4.30;1.87;;;10.00;99.90;;;;;;461412;257;28565;-70
2022/11/07 06:51:44;;;;;;;8.07;2.20;;;10.10;99.90;;;;;;461405;257;28667;-71
2022/11/07 06:53:45;;;;;;;6.73;2.60;;;10.10;99.90;;;;;;461403;257;28446;-70
2022/11/07 06:55:46;;;;;;;4.27;2.00;;;10.10;99.90;;;;;;461396;257;28000;-70
2022/11/07 06:57:48;;;;;;;6.33;2.57;;;10.10;99.90;;;;;;461424;257;28076;-71
2022/11/07 06:59:49;;;;;;;6.90;2.20;;;10.10;99.90;;;;;;461417;257;27988;-69
2022/11/07 07:01:50;;;;;;;8.00;2.40;;;10.10;99.90;;;;;;461408;257;27595;-70
2022/11/07 07:03:52;;;;;;;2.80;1.87;;;10.20;99.90;;;;;;461413;257;27951;-70
2022/11/07 07:05:53;;;;;;;6.03;2.20;;;10.20;99.90;;;;;;461388;257;28025;-71
2022/11/07 07:07:54;;;;;;;3.20;2.27;;;10.30;99.90;;;;;;461391;257;27934;-70
2022/11/07 07:09:55;;;;;;;2.80;1.70;;;10.30;99.90;;;;;;461306;257;28113;-70
2022/11/07 07:11:56;;;;;;;2.57;1.73;;;10.30;99.90;;;;;;461409;257;27919;-71
2022/11/07 07:13:58;;;;;;;4.10;2.20;;;10.30;99.90;;;;;;461408;257;29128;-70
2022/11/07 07:15:59;;;;;;;6.07;2.20;;;10.40;99.90;;;;;;461402;257;28735;-70
2022/11/07 07:18:00;;;;;;;5.43;1.80;;;10.40;99.90;;;;;;461411;257;28565;-70
2022/11/07 07:20:01;;;;;;;3.17;1.87;;;10.40;99.90;;;;;;461411;257;28012;-70
2022/11/07 07:22:03;;;;;;;7.20;2.17;;;10.40;99.90;;;;;;461385;257;28073;-70
2022/11/07 07:24:04;;;;;;;4.07;2.43;;;10.30;99.90;;;;;;461411;257;28069;-72
2022/11/07 07:26:05;;;;;;;4.30;1.90;;;10.30;99.90;;;;;;461402;257;27837;-70
2022/11/07 07:28:06;;;;;;;6.33;2.10;;;10.30;99.90;;;;;;461411;257;28044;-71
2022/11/07 07:30:08;;;;;;;4.83;2.60;;;10.30;99.90;;;;;;461404;257;28155;-70
2022/11/07 07:32:09;;;;;;;2.47;1.80;;;10.30;99.90;;;;;;461380;257;28145;-71
2022/11/07 07:34:10;;;;;;;3.30;2.00;;;10.30;99.90;;;;;;461400;257;28385;-71
2022/11/07 07:36:11;;;;;;;6.87;2.03;;;10.30;99.90;;;;;;461419;257;28118;-70
2022/11/07 07:38:13;;;;;;;4.90;2.30;;;10.30;99.90;;;;;;461428;257;28693;-70
2022/11/07 07:40:14;;;;;;;8.93;2.17;;;10.30;99.90;;;;;;461425;257;28085;-70
2022/11/07 07:42:15;;;;;;;2.80;1.97;;;10.30;99.90;;;;;;461398;257;28519;-69
2022/11/07 07:44:16;;;;;;;2.90;1.90;;;10.40;99.90;;;;;;461424;257;28210;-71
2022/11/07 07:46:18;;;;;;;5.13;1.90;;;10.40;99.90;;;;;;461436;257;28144;-70
2022/11/07 07:48:19;;;;;;;4.20;1.80;;;10.40;99.90;;;;;;461420;257;27665;-70
2022/11/07 07:50:20;;;;;;;5.10;2.63;;;10.40;99.90;;;;;;461398;257;28204;-70
2022/11/07 07:52:21;;;;;;;3.33;1.70;;;10.40;99.90;;;;;;461405;257;27670;-71
2022/11/07 07:54:23;;;;;;;2.70;1.97;;;10.40;99.90;;;;;;461408;257;28482;-71
2022/11/07 07:56:24;;;;;;;4.00;2.00;;;10.40;99.90;;;;;;461391;257;28097;-70
2022/11/07 07:58:25;;;;;;;5.57;1.90;;;10.40;99.90;;;;;;461405;257;28204;-70
2022/11/07 08:00:26;;;;;;;3.83;2.20;;;10.40;99.90;;;;;;461387;257;27922;-70
2022/11/07 08:02:28;;;;;;;3.20;2.30;;;10.30;99.90;;;;;;461382;257;28785;-71
2022/11/07 08:04:29;;;;;;;4.03;1.90;;;10.40;99.90;;;;;;461416;257;28417;-72
2022/11/07 08:06:31;;;;;;;5.50;2.20;;;10.40;99.90;;;;;;461382;257;28563;-71
2022/11/07 08:08:31;;;;;;;7.77;2.30;;;10.40;99.90;;;;;;461376;257;28390;-71
2022/11/07 08:10:33;;;;;;;6.53;1.90;;;10.40;99.90;;;;;;461417;257;28083;-70
2022/11/07 08:12:34;;;;;;;7.00;2.10;;;10.40;99.90;;;;;;461376;257;28058;-71
2022/11/07 08:14:35;;;;;;;5.53;2.30;;;10.40;99.90;;;;;;461427;257;28168;-72
2022/11/07 08:16:36;;;;;;;6.60;2.30;;;10.40;99.90;;;;;;461407;257;28136;-70
2022/11/07 08:18:41;;;;;;;10.43;3.30;;;10.40;99.90;;;;;;461340;257;27971;-70
2022/11/07 08:20:42;;;;;;;3.70;2.00;;;10.50;99.90;;;;;;461379;252;28081;-70
2022/11/07 08:22:43;;;;;;;2.07;1.73;;;10.50;99.90;;;;;;461396;257;27969;-70
2022/11/07 08:24:44;;;;;;;8.30;2.10;;;10.50;99.90;;;;;;461399;257;27917;-70
2022/11/07 08:26:46;;;;;;;5.43;2.57;;;10.60;99.90;;;;;;461402;257;27983;-70
2022/11/07 08:28:47;;;;;;;4.37;2.00;;;10.60;99.90;;;;;;461415;257;28361;-70
2022/11/07 08:30:48;;;;;;;4.10;2.30;;;10.60;99.90;;;;;;461400;257;28465;-71
2022/11/07 08:32:49;;;;;;;7.73;2.20;;;10.60;99.90;;;;;;461404;257;29656;-70
2022/11/07 08:34:51;;;;;;;2.50;1.77;;;10.60;99.90;;;;;;461423;257;28530;-70
2022/11/07 08:36:52;;;;;;;8.23;2.53;;;10.60;99.90;;;;;;461384;257;28152;-70
2022/11/07 08:38:53;;;;;;;5.40;2.23;;;10.60;99.90;;;;;;461391;257;28096;-70
2022/11/07 08:40:54;;;;;;;3.57;2.10;;;10.60;99.90;;;;;;461412;257;28076;-70
2022/11/07 08:42:56;;;;;;;7.13;2.37;;;10.60;99.90;;;;;;461422;257;27795;-70
2022/11/07 08:44:57;;;;;;;4.83;2.37;;;10.70;99.90;;;;;;461425;257;28099;-70
2022/11/07 08:46:58;;;;;;;6.97;2.10;;;10.70;99.90;;;;;;461421;257;28118;-71
2022/11/07 08:48:59;;;;;;;6.70;2.33;;;10.80;99.90;;;;;;461423;257;27555;-70
2022/11/07 08:51:04;;;;;;;6.37;2.00;;;10.80;99.90;;;;;;461422;257;28078;-70
2022/11/07 08:53:05;;;;;;;5.30;2.37;;;10.80;99.90;;;;;;461426;257;28077;-70
2022/11/07 08:55:06;;;;;;;3.93;2.10;;;10.90;99.90;;;;;;461425;257;27705;-71
2022/11/07 08:57:07;;;;;;;4.40;2.13;;;10.90;99.90;;;;;;461415;257;28044;-70
2022/11/07 08:59:09;;;;;;;3.73;2.00;;;10.90;99.90;;;;;;461415;257;28150;-70
2022/11/07 09:01:10;;;;;;;4.33;2.13;;;11.00;99.90;;;;;;461426;257;28459;-70
2022/11/07 09:03:12;;;;;;;5.40;1.90;;;11.00;99.90;;;;;;461412;257;28548;-70
2022/11/07 09:05:12;;;;;;;2.83;1.73;;;11.00;99.90;;;;;;461365;258;28486;-70
2022/11/07 09:07:14;;;;;;;3.10;1.77;;;11.10;99.90;;;;;;461413;257;28006;-70
2022/11/07 09:09:15;;;;;;;3.33;2.00;;;11.10;99.90;;;;;;461414;257;28075;-70
2022/11/07 09:11:17;;;;;;;15.80;2.30;;;11.10;99.90;;;;;;461438;257;28124;-70
2022/11/07 09:13:19;;;;;;;4.73;2.43;;;11.10;99.90;;;;;;461379;257;28052;-70
2022/11/07 09:15:19;;;;;;;7.30;2.33;;;11.10;99.90;;;;;;461347;257;28177;-71
2022/11/07 09:17:20;;;;;;;6.27;2.00;;;11.00;99.90;;;;;;461425;257;28048;-70
2022/11/07 09:19:21;;;;;;;6.03;2.27;;;11.00;99.90;;;;;;461416;257;28074;-71
2022/11/07 09:21:22;;;;;;;4.60;2.40;;;11.00;99.90;;;;;;461426;257;28122;-70
2022/11/07 09:23:24;;;;;;;5.70;2.27;;;11.00;99.90;;;;;;461391;257;28036;-70
2022/11/07 09:25:25;;;;;;;3.67;2.13;;;11.00;99.90;;;;;;461416;257;28505;-71
2022/11/07 09:27:26;;;;;;;3.60;2.33;;;11.10;99.90;;;;;;461426;257;28330;-71
2022/11/07 09:29:27;;;;;;;6.87;2.13;;;11.10;99.90;;;;;;461434;257;28512;-70
2022/11/07 09:31:29;;;;;;;4.43;2.33;;;11.10;99.90;;;;;;461427;257;28105;-69
2022/11/07 09:33:30;;;;;;;3.90;2.13;;;11.10;99.90;;;;;;461427;257;28032;-70
2022/11/07 09:35:31;;;;;;;2.43;1.87;;;11.10;99.90;;;;;;461441;257;28055;-71
2022/11/07 09:37:32;;;;;;;4.27;1.80;;;11.20;99.90;;;;;;461448;257;27967;-71
2022/11/07 09:39:34;;;;;;;4.50;2.03;;;11.20;99.90;;;;;;461456;257;28168;-70
2022/11/07 09:41:35;;;;;;;6.03;2.10;;;11.10;99.90;;;;;;460899;257;28060;-70
2022/11/07 09:43:39;;;;;;;4.50;2.10;;;11.10;99.90;;;;;;460655;257;28061;-70
2022/11/07 09:45:37;;;;;;;4.23;2.70;;;11.10;99.90;;;;;;461097;257;27826;-70
2022/11/07 09:47:39;;;;;;;7.10;2.87;;;11.20;99.90;;;;;;461414;257;28039;-70
2022/11/07 09:49:40;;;;;;;4.60;1.80;;;11.10;99.90;;;;;;461440;257;28550;-70
2022/11/07 09:51:41;;;;;;;5.93;1.87;;;11.10;99.90;;;;;;461449;257;28771;-69
2022/11/07 09:53:42;;;;;;;3.23;1.80;;;11.10;99.90;;;;;;461419;257;28360;-70
2022/11/07 09:55:44;;;;;;;3.63;2.10;;;11.10;99.90;;;;;;461431;257;28632;-71
2022/11/07 09:57:45;;;;;;;2.33;1.60;;;11.10;99.90;;;;;;461444;257;28113;-71
2022/11/07 09:59:46;;;;;;;4.47;2.20;;;11.20;99.90;;;;;;461416;257;28233;-71
2022/11/07 10:01:47;;;;;;;3.10;2.07;;;11.20;99.90;;;;;;461421;257;28238;-70
2022/11/07 10:03:49;;;;;;;3.07;2.37;;;11.20;99.90;;;;;;461409;257;28021;-70
2022/11/07 10:05:50;;;;;;;5.10;1.87;;;11.40;99.90;;;;;;461436;257;28091;-71
2022/11/07 10:07:51;;;;;;;5.17;2.23;;;11.50;99.90;;;;;;461432;257;28187;-70
2022/11/07 10:09:52;;;;;;;5.57;2.10;;;11.60;99.90;;;;;;461425;257;28073;-71
2022/11/07 10:11:54;;;;;;;6.20;2.30;;;11.70;99.90;;;;;;461367;257;28268;-70
2022/11/07 10:13:55;;;;;;;7.53;1.93;;;11.70;99.90;;;;;;461342;257;28491;-70
2022/11/07 10:15:56;;;;;;;3.80;2.20;;;11.70;99.90;;;;;;461369;257;28619;-72
2022/11/07 10:17:57;;;;;;;3.90;1.73;;;11.70;99.90;;;;;;461362;257;28821;-71
2022/11/07 10:19:59;;;;;;;5.57;1.83;;;11.70;99.90;;;;;;461373;257;28796;-70
2022/11/07 10:22:00;;;;;;;4.73;2.33;;;11.70;99.90;;;;;;461352;257;28268;-70
2022/11/07 10:24:01;;;;;;;3.87;2.17;;;11.60;99.90;;;;;;461369;257;28209;-70
2022/11/07 10:26:02;;;;;;;5.60;3.07;;;11.60;99.90;;;;;;461388;257;28476;-71
2022/11/07 10:28:04;;;;;;;4.13;1.70;;;11.50;99.90;;;;;;461416;257;28366;-70
2022/11/07 10:30:05;;;;;;;6.13;2.37;;;11.50;99.90;;;;;;461412;257;28195;-71
2022/11/07 10:32:06;;;;;;;2.70;1.90;;;11.50;99.90;;;;;;461413;257;28240;-70
2022/11/07 10:34:07;;;;;;;2.60;1.97;;;11.50;99.90;;;;;;461402;257;28188;-71
2022/11/07 10:36:09;;;;;;;4.23;1.97;;;11.60;99.90;;;;;;461414;252;28079;-71
2022/11/07 10:38:10;;;;;;;6.60;3.00;;;11.50;99.90;;;;;;461387;257;28116;-70
2022/11/07 10:40:11;;;;;;;2.77;1.60;;;11.60;99.90;;;;;;461423;257;28616;-71
2022/11/07 10:42:12;;;;;;;4.37;2.53;;;11.60;99.90;;;;;;461409;257;28582;-70
2022/11/07 10:44:14;;;;;;;8.17;2.33;;;11.60;99.90;;;;;;461392;257;28843;-70
2022/11/07 10:46:15;;;;;;;3.93;1.80;;;11.60;99.90;;;;;;461399;257;28156;-71
2022/11/07 10:48:16;;;;;;;4.17;1.80;;;11.60;99.90;;;;;;461413;257;28137;-71